Private Wetterstation Wechselburg
Wetterdaten: Samstag, 25.12.2021
Datum Zeit Temp. +2m Bodentemp. Temp.+5cm Temp. Wind Windchill X Diff Temp. Feuchte +2m Feuchte +5cm Luftdruck Regen Wind Richtung Richtung Sonnenschein Taupunkt Windchill Windben
25.12.2021 00:00 -0,1 C 7,6 C -0,1 C 0,3 C 0,3 C 0,4 C 89 % 94 % 1007,6 hPa 0,0 l/m 0,2 km/h (0 Bft) N-NW 337 0 min -1,7 C 0,3 C 0,0 km/h (0 Bft)
25.12.2021 00:05 -0,1 C 7,6 C -0,1 C 0,3 C 0,3 C 0,4 C 89 % 94 % 1007,6 hPa 0,0 l/m 0,2 km/h (0 Bft) N-NO 22 0 min -1,7 C 0,3 C 0,0 km/h (0 Bft)
25.12.2021 00:10 -0,1 C 7,6 C -0,1 C 0,3 C 0,3 C 0,4 C 89 % 94 % 1008,8 hPa 0,0 l/m 0,5 km/h (0 Bft) W 270 0 min -1,7 C 0,3 C 3,2 km/h (1 Bft)
25.12.2021 00:15 -0,2 C 7,6 C -0,1 C 0,3 C 0,3 C 0,5 C 89 % 94 % 1008,8 hPa 0,0 l/m 0,6 km/h (0 Bft) N-NO 22 0 min -1,8 C 0,3 C 4,0 km/h (1 Bft)
25.12.2021 00:20 -0,1 C 7,6 C -0,2 C 0,3 C 0,3 C 0,4 C 89 % 94 % 1008,8 hPa 0,0 l/m 0,5 km/h (0 Bft) NW 315 0 min -1,7 C 0,3 C 0,0 km/h (0 Bft)
25.12.2021 00:25 -0,1 C 7,6 C -0,1 C 0,2 C 0,2 C 0,3 C 89 % 94 % 1008,8 hPa 0,0 l/m 0,2 km/h (0 Bft) O-SO 112 0 min -1,7 C 0,2 C 0,0 km/h (0 Bft)
25.12.2021 00:30 -0,1 C 7,6 C -0,2 C 0,2 C 0,2 C 0,3 C 89 % 94 % 1008,6 hPa 0,0 l/m 0,0 km/h (0 Bft) O-SO 112 0 min -1,7 C 0,2 C 0,0 km/h (0 Bft)
25.12.2021 00:35 -0,3 C 7,6 C -0,1 C 0,2 C 0,2 C 0,5 C 89 % 94 % 1008,6 hPa 0,0 l/m 0,0 km/h (0 Bft) O-SO 112 0 min -1,9 C 0,2 C 0,0 km/h (0 Bft)
25.12.2021 00:40 -0,3 C 7,6 C -0,2 C 0,2 C 0,2 C 0,5 C 89 % 94 % 1008,6 hPa 0,0 l/m 0,0 km/h (0 Bft) O-SO 112 0 min -1,9 C 0,2 C 0,0 km/h (0 Bft)
25.12.2021 00:45 -0,3 C 7,6 C -0,1 C 0,2 C 0,2 C 0,5 C 89 % 94 % 1008,6 hPa 0,0 l/m 0,0 km/h (0 Bft) O-SO 112 0 min -1,9 C 0,2 C 0,0 km/h (0 Bft)
25.12.2021 00:50 -0,3 C 7,6 C -0,2 C 0,2 C 0,2 C 0,5 C 89 % 94 % 1009,2 hPa 0,0 l/m 0,0 km/h (0 Bft) O-SO 112 0 min -1,9 C 0,2 C 0,0 km/h (0 Bft)
25.12.2021 00:55 -0,3 C 7,6 C -0,2 C 0,2 C 0,2 C 0,5 C 89 % 94 % 1009,2 hPa 0,0 l/m 0,0 km/h (0 Bft) O-SO 112 0 min -1,9 C 0,2 C 0,0 km/h (0 Bft)
25.12.2021 01:00 -0,3 C 7,6 C -0,2 C 0,2 C 0,2 C 0,5 C 89 % 94 % 1009,2 hPa 0,0 l/m 0,0 km/h (0 Bft) O-SO 112 0 min -1,9 C 0,2 C 0,0 km/h (0 Bft)
25.12.2021 01:05 -0,3 C 7,6 C -0,2 C 0,2 C 0,2 C 0,5 C 89 % 94 % 1009,2 hPa 0,0 l/m 0,0 km/h (0 Bft) O-SO 112 0 min -1,9 C 0,2 C 0,0 km/h (0 Bft)
25.12.2021 01:10 -0,4 C 7,6 C -0,2 C 0,1 C 0,1 C 0,5 C 89 % 95 % 1009,2 hPa 0,0 l/m 0,0 km/h (0 Bft) O-SO 112 0 min -2,0 C 0,1 C 0,0 km/h (0 Bft)
25.12.2021 01:15 -0,5 C 7,6 C -0,3 C 0,0 C 0,0 C 0,5 C 89 % 94 % 1009,2 hPa 0,0 l/m 0,0 km/h (0 Bft) O-SO 112 0 min -2,1 C 0,0 C 0,0 km/h (0 Bft)
25.12.2021 01:20 -0,5 C 7,5 C -0,3 C -0,1 C -0,1 C 0,4 C 89 % 95 % 1009,2 hPa 0,0 l/m 0,0 km/h (0 Bft) O-SO 112 0 min -2,1 C -0,1 C 0,0 km/h (0 Bft)
25.12.2021 01:25 -0,5 C 7,5 C -0,3 C -0,3 C -0,3 C 0,2 C 89 % 94 % 1009,2 hPa 0,0 l/m 0,0 km/h (0 Bft) O-SO 112 0 min -2,1 C -0,3 C 0,0 km/h (0 Bft)
25.12.2021 01:30 -0,5 C 7,5 C -0,4 C -0,5 C -0,5 C 0,0 C 89 % 94 % 1009,5 hPa 0,0 l/m 0,0 km/h (0 Bft) O-SO 112 0 min -2,1 C -0,5 C 0,0 km/h (0 Bft)
25.12.2021 01:35 -0,8 C 7,5 C -0,5 C -0,6 C -0,6 C 0,2 C 89 % 95 % 1009,5 hPa 0,0 l/m 0,0 km/h (0 Bft) O-SO 112 0 min -2,4 C -0,6 C 0,0 km/h (0 Bft)
25.12.2021 01:40 -0,7 C 7,5 C -0,5 C -0,6 C -0,6 C 0,1 C 89 % 95 % 1009,5 hPa 0,0 l/m 0,0 km/h (0 Bft) O-SO 112 0 min -2,3 C -0,6 C 0,0 km/h (0 Bft)
25.12.2021 01:45 -0,9 C 7,5 C -0,5 C -0,7 C -0,7 C 0,2 C 89 % 95 % 1009,5 hPa 0,0 l/m 0,0 km/h (0 Bft) O-SO 112 0 min -2,5 C -0,7 C 0,0 km/h (0 Bft)
25.12.2021 01:50 -0,9 C 7,5 C -0,5 C -0,7 C -0,7 C 0,2 C 89 % 95 % 1009,8 hPa 0,0 l/m 0,0 km/h (0 Bft) O-SO 112 0 min -2,5 C -0,7 C 0,0 km/h (0 Bft)
25.12.2021 01:55 -0,9 C 7,5 C -0,6 C -0,7 C -0,7 C 0,2 C 89 % 95 % 1009,8 hPa 0,0 l/m 0,0 km/h (0 Bft) O-SO 112 0 min -2,5 C -0,7 C 0,0 km/h (0 Bft)
25.12.2021 02:00 -0,9 C 7,4 C -0,6 C -0,7 C -0,7 C 0,2 C 89 % 95 % 1009,8 hPa 0,0 l/m 0,0 km/h (0 Bft) O-SO 112 0 min -2,5 C -0,7 C 0,0 km/h (0 Bft)
25.12.2021 02:05 -0,9 C 7,4 C -0,6 C -0,7 C -0,7 C 0,2 C 89 % 95 % 1009,8 hPa 0,0 l/m 0,0 km/h (0 Bft) O-SO 112 0 min -2,5 C -0,7 C 0,0 km/h (0 Bft)
25.12.2021 02:10 -0,9 C 7,4 C -0,6 C -0,7 C -0,7 C 0,2 C 89 % 95 % 1009,4 hPa 0,0 l/m 0,0 km/h (0 Bft) O-SO 112 0 min -2,5 C -0,7 C 0,0 km/h (0 Bft)
25.12.2021 02:15 -0,9 C 7,4 C -0,6 C -0,7 C -0,7 C 0,2 C 89 % 95 % 1009,4 hPa 0,0 l/m 0,0 km/h (0 Bft) O-SO 112 0 min -2,5 C -0,7 C 0,0 km/h (0 Bft)
25.12.2021 02:20 -0,9 C 7,4 C -0,6 C -0,7 C -0,7 C 0,2 C 89 % 95 % 1009,4 hPa 0,0 l/m 0,0 km/h (0 Bft) O-SO 112 0 min -2,5 C -0,7 C 0,0 km/h (0 Bft)
25.12.2021 02:25 -1,1 C 7,4 C -0,6 C -0,7 C -0,7 C 0,4 C 89 % 95 % 1009,4 hPa 0,0 l/m 0,0 km/h (0 Bft) O-SO 112 0 min -2,7 C -0,7 C 0,0 km/h (0 Bft)
25.12.2021 02:30 -1,1 C 7,4 C -0,7 C -0,7 C -0,7 C 0,4 C 89 % 95 % 1009,8 hPa 0,0 l/m 0,0 km/h (0 Bft) O-SO 112 0 min -2,7 C -0,7 C 0,0 km/h (0 Bft)
25.12.2021 02:35 -1,1 C 7,4 C -0,7 C -0,7 C -0,7 C 0,4 C 89 % 95 % 1009,8 hPa 0,0 l/m 0,0 km/h (0 Bft) O-SO 112 0 min -2,7 C -0,7 C 0,0 km/h (0 Bft)
25.12.2021 02:40 -1,2 C 7,3 C -0,7 C -0,7 C -0,7 C 0,5 C 89 % 95 % 1009,8 hPa 0,0 l/m 0,0 km/h (0 Bft) O-SO 112 0 min -2,8 C -0,7 C 0,0 km/h (0 Bft)
25.12.2021 02:45 -1,1 C 7,3 C -0,7 C -0,7 C -0,7 C 0,4 C 89 % 95 % 1009,8 hPa 0,0 l/m 0,0 km/h (0 Bft) O-SO 112 0 min -2,7 C -0,7 C 0,0 km/h (0 Bft)
25.12.2021 02:50 -1,2 C 7,3 C -0,7 C -0,7 C -0,7 C 0,5 C 89 % 95 % 1010,2 hPa 0,0 l/m 0,0 km/h (0 Bft) O-SO 112 0 min -2,8 C -0,7 C 0,0 km/h (0 Bft)
25.12.2021 02:55 -1,1 C 7,3 C -0,8 C -0,8 C -0,8 C 0,3 C 89 % 95 % 1010,2 hPa 0,0 l/m 0,0 km/h (0 Bft) O-SO 112 0 min -2,7 C -0,8 C 0,0 km/h (0 Bft)
25.12.2021 03:00 -1,3 C 7,3 C -0,9 C -0,9 C -0,9 C 0,4 C 89 % 95 % 1010,2 hPa 0,0 l/m 0,0 km/h (0 Bft) O-SO 112 0 min -2,9 C -0,9 C 0,0 km/h (0 Bft)
25.12.2021 03:05 -1,3 C 7,2 C -1,1 C -1,1 C -1,1 C 0,2 C 89 % 95 % 1010,2 hPa 0,0 l/m 0,0 km/h (0 Bft) O-SO 112 0 min -2,9 C -1,1 C 0,0 km/h (0 Bft)
25.12.2021 03:10 -1,5 C 7,2 C -1,2 C -1,2 C -1,2 C 0,3 C 89 % 95 % 1010,1 hPa 0,0 l/m 0,0 km/h (0 Bft) O-SO 112 0 min -3,1 C -1,2 C 0,0 km/h (0 Bft)
25.12.2021 03:15 -1,5 C 7,2 C -1,3 C -1,4 C -1,4 C 0,1 C 89 % 95 % 1010,1 hPa 0,0 l/m 0,0 km/h (0 Bft) O-SO 112 0 min -3,1 C -1,4 C 0,0 km/h (0 Bft)
25.12.2021 03:20 -1,7 C 7,2 C -1,4 C -1,5 C -1,5 C 0,2 C 89 % 95 % 1010,1 hPa 0,0 l/m 0,0 km/h (0 Bft) O-SO 112 0 min -3,3 C -1,5 C 0,0 km/h (0 Bft)
25.12.2021 03:25 -1,8 C 7,2 C -1,5 C -1,6 C -1,6 C 0,2 C 89 % 95 % 1010,1 hPa 0,0 l/m 0,0 km/h (0 Bft) O-SO 112 0 min -3,4 C -1,6 C 0,0 km/h (0 Bft)
25.12.2021 03:30 -1,7 C 7,1 C -1,6 C -1,7 C -1,7 C 0,0 C 89 % 94 % 1010,8 hPa 0,0 l/m 0,0 km/h (0 Bft) O-SO 112 0 min -3,3 C -1,7 C 0,0 km/h (0 Bft)
25.12.2021 03:35 -2,0 C 7,1 C -1,7 C -1,7 C -1,7 C 0,3 C 89 % 94 % 1010,8 hPa 0,0 l/m 0,0 km/h (0 Bft) O-SO 112 0 min -3,6 C -1,7 C 0,0 km/h (0 Bft)
25.12.2021 03:40 -2,0 C 7,1 C -1,7 C -1,8 C -1,8 C 0,2 C 89 % 94 % 1010,8 hPa 0,0 l/m 0,0 km/h (0 Bft) O-SO 112 0 min -3,6 C -1,8 C 0,0 km/h (0 Bft)
25.12.2021 03:45 -2,1 C 7,1 C -1,8 C -1,9 C -1,9 C 0,2 C 89 % 94 % 1010,8 hPa 0,0 l/m 0,0 km/h (0 Bft) O-SO 112 0 min -3,7 C -1,9 C 0,0 km/h (0 Bft)
25.12.2021 03:50 -2,1 C 7,1 C -1,9 C -1,9 C -1,9 C 0,2 C 89 % 95 % 1010,2 hPa 0,0 l/m 0,0 km/h (0 Bft) O-SO 112 0 min -3,7 C -1,9 C 0,0 km/h (0 Bft)
25.12.2021 03:55 -2,1 C 7,1 C -1,9 C -1,9 C -1,9 C 0,2 C 89 % 95 % 1010,2 hPa 0,0 l/m 0,0 km/h (0 Bft) O-SO 112 0 min -3,7 C -1,9 C 0,0 km/h (0 Bft)
25.12.2021 04:00 -2,1 C 7,1 C -1,9 C -2,0 C -2,0 C 0,1 C 89 % 95 % 1010,2 hPa 0,0 l/m 0,0 km/h (0 Bft) O-SO 112 0 min -3,7 C -2,0 C 0,0 km/h (0 Bft)
25.12.2021 04:05 -2,3 C 7,0 C -2,0 C -2,1 C -2,1 C 0,2 C 89 % 94 % 1010,2 hPa 0,0 l/m 0,0 km/h (0 Bft) O-SO 112 0 min -3,9 C -2,1 C 0,0 km/h (0 Bft)
25.12.2021 04:10 -2,3 C 7,1 C -2,1 C -2,2 C -2,2 C 0,1 C 89 % 94 % 1010,2 hPa 0,0 l/m 0,0 km/h (0 Bft) O-SO 112 0 min -3,9 C -2,2 C 0,0 km/h (0 Bft)
25.12.2021 04:15 -2,4 C 7,0 C -2,1 C -2,2 C -2,2 C 0,2 C 89 % 94 % 1010,2 hPa 0,0 l/m 0,0 km/h (0 Bft) O-SO 112 0 min -4,0 C -2,2 C 0,0 km/h (0 Bft)
25.12.2021 04:20 -2,3 C 7,0 C -2,1 C -2,3 C -2,3 C 0,0 C 89 % 94 % 1010,2 hPa 0,0 l/m 0,0 km/h (0 Bft) O-SO 112 0 min -3,9 C -2,3 C 0,0 km/h (0 Bft)
25.12.2021 04:25 -2,5 C 7,0 C -2,2 C -2,3 C -2,3 C 0,2 C 89 % 94 % 1010,2 hPa 0,0 l/m 0,0 km/h (0 Bft) O-SO 112 0 min -4,1 C -2,3 C 0,0 km/h (0 Bft)
25.12.2021 04:30 -2,5 C 7,0 C -2,2 C -2,3 C -2,3 C 0,2 C 89 % 94 % 1010,8 hPa 0,0 l/m 0,0 km/h (0 Bft) O-SO 112 0 min -4,1 C -2,3 C 0,0 km/h (0 Bft)
25.12.2021 04:35 -2,5 C 7,0 C -2,2 C -2,3 C -2,3 C 0,2 C 89 % 94 % 1010,8 hPa 0,0 l/m 0,0 km/h (0 Bft) O-SO 112 0 min -4,1 C -2,3 C 0,0 km/h (0 Bft)
25.12.2021 04:40 -2,5 C 7,0 C -2,2 C -2,3 C -2,3 C 0,2 C 89 % 94 % 1010,8 hPa 0,0 l/m 0,0 km/h (0 Bft) O-SO 112 0 min -4,1 C -2,3 C 0,0 km/h (0 Bft)
25.12.2021 04:45 -2,6 C 7,0 C -2,2 C -2,3 C -2,3 C 0,3 C 89 % 94 % 1010,8 hPa 0,0 l/m 0,0 km/h (0 Bft) O-SO 112 0 min -4,2 C -2,3 C 0,0 km/h (0 Bft)
25.12.2021 04:50 -2,5 C 6,9 C -2,2 C -2,3 C -2,3 C 0,2 C 89 % 94 % 1011,1 hPa 0,0 l/m 0,0 km/h (0 Bft) O-SO 112 0 min -4,1 C -2,3 C 0,0 km/h (0 Bft)
25.12.2021 04:55 -2,5 C 6,9 C -2,3 C -2,3 C -2,3 C 0,2 C 89 % 94 % 1011,1 hPa 0,0 l/m 0,0 km/h (0 Bft) O-SO 112 0 min -4,1 C -2,3 C 0,0 km/h (0 Bft)
25.12.2021 05:00 -2,5 C 7,0 C -2,2 C -2,3 C -2,3 C 0,2 C 89 % 94 % 1011,1 hPa 0,0 l/m 0,0 km/h (0 Bft) O-SO 112 0 min -4,1 C -2,3 C 0,0 km/h (0 Bft)
25.12.2021 05:05 -2,7 C 6,9 C -2,2 C -2,3 C -2,3 C 0,4 C 89 % 94 % 1011,1 hPa 0,0 l/m 0,0 km/h (0 Bft) O-SO 112 0 min -4,3 C -2,3 C 0,0 km/h (0 Bft)
25.12.2021 05:10 -2,7 C 6,9 C -2,3 C -2,3 C -2,3 C 0,4 C 89 % 94 % 1011,1 hPa 0,0 l/m 0,0 km/h (0 Bft) O-SO 112 0 min -4,3 C -2,3 C 0,0 km/h (0 Bft)
25.12.2021 05:15 -2,7 C 6,9 C -2,3 C -2,3 C -2,3 C 0,4 C 89 % 94 % 1011,1 hPa 0,0 l/m 0,0 km/h (0 Bft) O-SO 112 0 min -4,3 C -2,3 C 0,0 km/h (0 Bft)
25.12.2021 05:20 -2,7 C 6,9 C -2,3 C -2,4 C -2,4 C 0,3 C 89 % 94 % 1011,1 hPa 0,0 l/m 0,0 km/h (0 Bft) O-SO 112 0 min -4,3 C -2,4 C 0,0 km/h (0 Bft)
25.12.2021 05:25 -2,8 C 6,8 C -2,4 C -2,4 C -2,4 C 0,4 C 89 % 94 % 1011,1 hPa 0,0 l/m 0,0 km/h (0 Bft) O-SO 112 0 min -4,4 C -2,4 C 0,0 km/h (0 Bft)
25.12.2021 05:30 -2,9 C 6,8 C -2,5 C -2,5 C -2,5 C 0,4 C 89 % 94 % 1011,1 hPa 0,0 l/m 0,0 km/h (0 Bft) O-SO 112 0 min -4,5 C -2,5 C 0,0 km/h (0 Bft)
25.12.2021 05:35 -2,9 C 6,8 C -2,7 C -2,7 C -2,7 C 0,2 C 89 % 94 % 1011,1 hPa 0,0 l/m 0,0 km/h (0 Bft) O-SO 112 0 min -4,5 C -2,7 C 0,0 km/h (0 Bft)
25.12.2021 05:40 -2,9 C 6,8 C -2,8 C -2,8 C -2,8 C 0,1 C 89 % 94 % 1011,1 hPa 0,0 l/m 0,0 km/h (0 Bft) O-SO 112 0 min -4,5 C -2,8 C 0,0 km/h (0 Bft)
25.12.2021 05:45 -3,2 C 6,8 C -2,9 C -3,0 C -3,0 C 0,2 C 89 % 94 % 1011,1 hPa 0,0 l/m 0,0 km/h (0 Bft) O-SO 112 0 min -4,7 C -3,0 C 0,0 km/h (0 Bft)
25.12.2021 05:50 -3,1 C 6,8 C -3,0 C -3,1 C -3,1 C 0,0 C 89 % 94 % 1011,3 hPa 0,0 l/m 0,0 km/h (0 Bft) O-SO 112 0 min -4,6 C -3,1 C 0,0 km/h (0 Bft)
25.12.2021 05:55 -3,3 C 6,7 C -3,3 C -3,2 C -3,2 C 0,1 C 89 % 94 % 1011,3 hPa 0,0 l/m 0,0 km/h (0 Bft) O-SO 112 0 min -4,8 C -3,2 C 0,0 km/h (0 Bft)
25.12.2021 06:00 -3,3 C 6,7 C -3,5 C -3,3 C -3,4 C 0,0 C 89 % 93 % 1011,3 hPa 0,0 l/m 0,0 km/h (0 Bft) O-SO 112 0 min -4,8 C -3,4 C 0,0 km/h (0 Bft)
25.12.2021 06:05 -3,5 C 6,7 C -3,6 C -3,6 C -3,7 C 0,0 C 89 % 93 % 1011,3 hPa 0,0 l/m 0,0 km/h (0 Bft) O-SO 112 0 min -5,0 C -3,7 C 0,0 km/h (0 Bft)
25.12.2021 06:10 -3,7 C 6,6 C -3,7 C -3,7 C -3,8 C 0,0 C 89 % 93 % 1011,6 hPa 0,0 l/m 0,0 km/h (0 Bft) O-SO 112 0 min -5,2 C -3,8 C 0,0 km/h (0 Bft)
25.12.2021 06:15 -3,7 C 6,6 C -3,8 C -3,8 C -4,0 C 0,0 C 89 % 93 % 1011,6 hPa 0,0 l/m 0,0 km/h (0 Bft) O-SO 112 0 min -5,2 C -4,0 C 0,0 km/h (0 Bft)
25.12.2021 06:20 -3,9 C 6,6 C -3,9 C -4,0 C -4,1 C 0,0 C 89 % 93 % 1011,6 hPa 0,0 l/m 0,0 km/h (0 Bft) O-SO 112 0 min -5,4 C -4,1 C 0,0 km/h (0 Bft)
25.12.2021 06:25 -3,9 C 6,6 C -4,0 C -4,0 C -4,2 C 0,0 C 89 % 93 % 1011,6 hPa 0,0 l/m 0,0 km/h (0 Bft) O-SO 112 0 min -5,4 C -4,2 C 0,0 km/h (0 Bft)
25.12.2021 06:30 -4,0 C 6,6 C -4,0 C -4,1 C -4,2 C 0,0 C 89 % 93 % 1011,8 hPa 0,0 l/m 0,0 km/h (0 Bft) O-SO 112 0 min -5,5 C -4,2 C 0,0 km/h (0 Bft)
25.12.2021 06:35 -3,9 C 6,6 C -4,0 C -4,0 C -4,2 C 0,0 C 89 % 93 % 1011,8 hPa 0,0 l/m 0,0 km/h (0 Bft) O-SO 112 0 min -5,4 C -4,2 C 0,0 km/h (0 Bft)
25.12.2021 06:40 -4,1 C 6,6 C -4,0 C -4,1 C -4,2 C 0,0 C 89 % 93 % 1011,8 hPa 0,0 l/m 0,0 km/h (0 Bft) O-SO 112 0 min -5,6 C -4,2 C 0,0 km/h (0 Bft)
25.12.2021 06:45 -4,1 C 6,6 C -4,0 C -4,1 C -4,2 C 0,0 C 89 % 93 % 1011,8 hPa 0,0 l/m 0,0 km/h (0 Bft) O-SO 112 0 min -5,6 C -4,2 C 0,0 km/h (0 Bft)
25.12.2021 06:50 -4,1 C 6,6 C -4,0 C -4,1 C -4,2 C 0,0 C 89 % 93 % 1012,2 hPa 0,0 l/m 0,0 km/h (0 Bft) O-SO 112 0 min -5,6 C -4,2 C 0,0 km/h (0 Bft)
25.12.2021 06:55 -4,1 C 6,6 C -4,0 C -4,1 C -4,2 C 0,0 C 89 % 93 % 1012,2 hPa 0,0 l/m 0,0 km/h (0 Bft) O-SO 112 0 min -5,6 C -4,2 C 0,0 km/h (0 Bft)
25.12.2021 07:00 -4,1 C 6,5 C -4,0 C -4,1 C -4,2 C 0,0 C 89 % 93 % 1012,2 hPa 0,0 l/m 0,0 km/h (0 Bft) O-SO 112 0 min -5,6 C -4,2 C 0,0 km/h (0 Bft)
25.12.2021 07:05 -4,1 C 6,5 C -4,1 C -4,1 C -4,2 C 0,0 C 89 % 93 % 1012,2 hPa 0,0 l/m 0,0 km/h (0 Bft) O-SO 112 0 min -5,6 C -4,2 C 0,0 km/h (0 Bft)
25.12.2021 07:10 -4,1 C 6,5 C -4,1 C -4,1 C -4,2 C 0,0 C 89 % 93 % 1012,2 hPa 0,0 l/m 0,0 km/h (0 Bft) O-SO 112 0 min -5,6 C -4,2 C 0,0 km/h (0 Bft)
25.12.2021 07:15 -4,1 C 6,5 C -4,1 C -4,1 C -4,2 C 0,0 C 89 % 93 % 1012,2 hPa 0,0 l/m 0,0 km/h (0 Bft) O-SO 112 0 min -5,6 C -4,2 C 0,0 km/h (0 Bft)
25.12.2021 07:20 -4,1 C 6,5 C -4,1 C -4,1 C -4,2 C 0,0 C 89 % 93 % 1012,2 hPa 0,0 l/m 0,0 km/h (0 Bft) O-SO 112 0 min -5,6 C -4,2 C 0,0 km/h (0 Bft)
25.12.2021 07:25 -4,1 C 6,5 C -4,1 C -4,1 C -4,2 C 0,0 C 89 % 93 % 1012,2 hPa 0,0 l/m 0,0 km/h (0 Bft) O-SO 112 0 min -5,6 C -4,2 C 0,0 km/h (0 Bft)
25.12.2021 07:30 -4,1 C 6,5 C -4,1 C -4,1 C -4,2 C 0,0 C 89 % 93 % 1012,2 hPa 0,0 l/m 0,0 km/h (0 Bft) O-SO 112 0 min -5,6 C -4,2 C 0,0 km/h (0 Bft)
25.12.2021 07:35 -4,1 C 6,4 C -4,1 C -4,1 C -4,2 C 0,0 C 89 % 93 % 1012,2 hPa 0,0 l/m 0,0 km/h (0 Bft) O-SO 112 0 min -5,6 C -4,2 C 0,0 km/h (0 Bft)
25.12.2021 07:40 -4,1 C 6,4 C -4,1 C -4,1 C -4,2 C 0,0 C 89 % 93 % 1012,2 hPa 0,0 l/m 0,0 km/h (0 Bft) O-SO 112 0 min -5,6 C -4,2 C 0,0 km/h (0 Bft)
25.12.2021 07:45 -4,1 C 6,4 C -4,1 C -4,1 C -4,2 C 0,0 C 89 % 93 % 1012,2 hPa 0,0 l/m 0,0 km/h (0 Bft) O-SO 112 0 min -5,6 C -4,2 C 0,0 km/h (0 Bft)
25.12.2021 07:50 -4,1 C 6,4 C -4,1 C -4,1 C -4,2 C 0,0 C 89 % 93 % 1012,5 hPa 0,0 l/m 0,0 km/h (0 Bft) O-SO 112 0 min -5,6 C -4,2 C 0,0 km/h (0 Bft)
25.12.2021 07:55 -4,1 C 6,4 C -4,1 C -4,1 C -4,2 C 0,0 C 89 % 93 % 1012,5 hPa 0,0 l/m 0,0 km/h (0 Bft) O-SO 112 0 min -5,6 C -4,2 C 0,0 km/h (0 Bft)
25.12.2021 08:00 -4,1 C 6,4 C -4,0 C -4,1 C -4,2 C 0,0 C 89 % 93 % 1012,5 hPa 0,0 l/m 0,0 km/h (0 Bft) O-SO 112 0 min -5,6 C -4,2 C 0,0 km/h (0 Bft)
25.12.2021 08:05 -4,1 C 6,4 C -4,0 C -4,1 C -4,2 C 0,0 C 89 % 93 % 1012,5 hPa 0,0 l/m 0,0 km/h (0 Bft) O-SO 112 0 min -5,6 C -4,2 C 0,0 km/h (0 Bft)
25.12.2021 08:10 -4,1 C 6,4 C -4,1 C -4,1 C -4,2 C 0,0 C 89 % 93 % 1012,8 hPa 0,0 l/m 0,0 km/h (0 Bft) O-SO 112 0 min -5,6 C -4,2 C 0,0 km/h (0 Bft)
25.12.2021 08:15 -4,1 C 6,4 C -4,1 C -4,1 C -4,2 C 0,0 C 89 % 93 % 1012,8 hPa 0,0 l/m 0,0 km/h (0 Bft) O-SO 112 0 min -5,6 C -4,2 C 0,0 km/h (0 Bft)
25.12.2021 08:20 -4,1 C 6,3 C -4,1 C -4,1 C -4,2 C 0,0 C 89 % 93 % 1012,8 hPa 0,0 l/m 0,0 km/h (0 Bft) O-SO 112 0 min -5,6 C -4,2 C 0,0 km/h (0 Bft)
25.12.2021 08:25 -4,1 C 6,3 C -4,2 C -4,2 C -4,3 C 0,0 C 89 % 93 % 1012,8 hPa 0,0 l/m 0,0 km/h (0 Bft) O-SO 112 0 min -5,6 C -4,3 C 0,0 km/h (0 Bft)
25.12.2021 08:30 -4,1 C 6,3 C -4,1 C -4,2 C -4,3 C 0,0 C 89 % 93 % 1012,6 hPa 0,0 l/m 0,0 km/h (0 Bft) O-SO 112 0 min -5,6 C -4,3 C 0,0 km/h (0 Bft)
25.12.2021 08:35 -4,1 C 6,3 C -4,2 C -4,2 C -4,4 C 0,0 C 89 % 93 % 1012,6 hPa 0,0 l/m 0,0 km/h (0 Bft) O-SO 112 0 min -5,6 C -4,4 C 0,0 km/h (0 Bft)
25.12.2021 08:40 -4,1 C 6,3 C -4,1 C -4,2 C -4,4 C 0,0 C 89 % 93 % 1012,6 hPa 0,0 l/m 0,0 km/h (0 Bft) O-SO 112 0 min -5,6 C -4,4 C 0,0 km/h (0 Bft)
25.12.2021 08:45 -4,1 C 6,3 C -4,2 C -4,2 C -4,4 C 0,0 C 89 % 93 % 1012,6 hPa 0,0 l/m 0,0 km/h (0 Bft) O-SO 112 0 min -5,6 C -4,4 C 0,0 km/h (0 Bft)
25.12.2021 08:50 -4,1 C 6,3 C -4,2 C -4,2 C -4,4 C 0,0 C 89 % 93 % 1012,6 hPa 0,0 l/m 0,0 km/h (0 Bft) O-SO 112 0 min -5,6 C -4,4 C 0,0 km/h (0 Bft)
25.12.2021 08:55 -4,1 C 6,1 C -4,3 C -4,2 C -4,4 C 0,0 C 89 % 93 % 1012,6 hPa 0,0 l/m 0,0 km/h (0 Bft) O-SO 112 0 min -5,6 C -4,4 C 0,0 km/h (0 Bft)
25.12.2021 09:00 -4,1 C 6,1 C -4,3 C -4,2 C -4,4 C 0,0 C 89 % 93 % 1012,6 hPa 0,0 l/m 0,0 km/h (0 Bft) O-SO 112 0 min -5,6 C -4,4 C 0,0 km/h (0 Bft)
25.12.2021 09:05 -4,1 C 6,1 C -4,2 C -4,2 C -4,4 C 0,0 C 89 % 93 % 1012,6 hPa 0,0 l/m 0,0 km/h (0 Bft) O-SO 112 0 min -5,6 C -4,4 C 0,0 km/h (0 Bft)
25.12.2021 09:10 -4,1 C 6,1 C -4,3 C -4,2 C -4,4 C 0,0 C 89 % 93 % 1013,0 hPa 0,0 l/m 0,0 km/h (0 Bft) O-SO 112 0 min -5,6 C -4,4 C 0,0 km/h (0 Bft)
25.12.2021 09:15 -4,1 C 6,1 C -4,2 C -4,2 C -4,4 C 0,0 C 89 % 93 % 1013,0 hPa 0,0 l/m 0,0 km/h (0 Bft) O-SO 112 0 min -5,6 C -4,4 C 0,0 km/h (0 Bft)
25.12.2021 09:20 -4,1 C 6,1 C -4,2 C -4,2 C -4,4 C 0,0 C 89 % 93 % 1013,0 hPa 0,0 l/m 0,0 km/h (0 Bft) O-SO 112 0 min -5,6 C -4,4 C 0,0 km/h (0 Bft)
25.12.2021 09:25 -4,2 C 6,1 C -4,1 C -4,2 C -4,3 C 0,0 C 89 % 93 % 1013,0 hPa 0,0 l/m 0,0 km/h (0 Bft) O-SO 112 0 min -5,7 C -4,3 C 0,0 km/h (0 Bft)
25.12.2021 09:30 -4,1 C 6,1 C -4,2 C -4,2 C -4,3 C 0,0 C 89 % 92 % 1013,1 hPa 0,0 l/m 0,0 km/h (0 Bft) O-SO 112 0 min -5,6 C -4,3 C 0,0 km/h (0 Bft)
25.12.2021 09:35 -4,1 C 6,1 C -4,1 C -4,1 C -4,2 C 0,0 C 89 % 92 % 1013,1 hPa 0,0 l/m 0,0 km/h (0 Bft) O-SO 112 0 min -5,6 C -4,2 C 0,0 km/h (0 Bft)
25.12.2021 09:40 -4,1 C 6,1 C -4,1 C -4,1 C -4,1 C 0,0 C 89 % 92 % 1013,1 hPa 0,0 l/m 0,0 km/h (0 Bft) O-SO 112 0 min -5,6 C -4,1 C 0,0 km/h (0 Bft)
25.12.2021 09:45 -4,1 C 6,1 C -3,9 C -3,9 C -3,9 C 0,2 C 89 % 92 % 1013,1 hPa 0,0 l/m 0,0 km/h (0 Bft) O-SO 112 0 min -5,6 C -3,9 C 0,0 km/h (0 Bft)
25.12.2021 09:50 -3,9 C 6,1 C -3,9 C -3,9 C -3,9 C 0,0 C 89 % 92 % 1013,1 hPa 0,0 l/m 0,0 km/h (0 Bft) O-SO 112 0 min -5,4 C -3,9 C 0,0 km/h (0 Bft)
25.12.2021 09:55 -3,9 C 6,0 C -3,8 C -3,8 C -3,8 C 0,1 C 89 % 92 % 1013,1 hPa 0,0 l/m 0,0 km/h (0 Bft) O-SO 112 0 min -5,4 C -3,8 C 0,0 km/h (0 Bft)
25.12.2021 10:00 -4,0 C 6,0 C -3,8 C -3,7 C -3,7 C 0,3 C 89 % 92 % 1013,1 hPa 0,0 l/m 0,0 km/h (0 Bft) O-SO 112 0 min -5,5 C -3,7 C 0,0 km/h (0 Bft)
25.12.2021 10:05 -4,0 C 6,0 C -3,8 C -3,7 C -3,7 C 0,3 C 89 % 92 % 1013,1 hPa 0,0 l/m 0,0 km/h (0 Bft) O-SO 112 0 min -5,5 C -3,7 C 0,0 km/h (0 Bft)
25.12.2021 10:10 -4,0 C 6,0 C -3,7 C -3,7 C -3,7 C 0,3 C 89 % 92 % 1013,2 hPa 0,0 l/m 0,0 km/h (0 Bft) O-SO 112 0 min -5,5 C -3,7 C 0,0 km/h (0 Bft)
25.12.2021 10:15 -3,9 C 6,0 C -3,6 C -3,6 C -3,6 C 0,3 C 89 % 92 % 1013,2 hPa 0,0 l/m 0,0 km/h (0 Bft) O-SO 112 0 min -5,4 C -3,6 C 0,0 km/h (0 Bft)
25.12.2021 10:20 -3,7 C 6,0 C -3,4 C -3,5 C -3,5 C 0,2 C 89 % 92 % 1013,2 hPa 0,0 l/m 0,0 km/h (0 Bft) O-SO 112 0 min -5,2 C -3,5 C 0,0 km/h (0 Bft)
25.12.2021 10:25 -3,8 C 6,0 C -3,4 C -3,3 C -3,3 C 0,5 C 89 % 92 % 1013,2 hPa 0,0 l/m 0,0 km/h (0 Bft) O-SO 112 0 min -5,3 C -3,3 C 0,0 km/h (0 Bft)
25.12.2021 10:30 -3,7 C 6,0 C -3,4 C -3,2 C -3,2 C 0,5 C 89 % 92 % 1012,9 hPa 0,0 l/m 0,0 km/h (0 Bft) O-SO 112 0 min -5,2 C -3,2 C 0,0 km/h (0 Bft)
25.12.2021 10:35 -3,7 C 6,0 C -3,3 C -3,1 C -3,1 C 0,6 C 89 % 92 % 1012,9 hPa 0,0 l/m 0,0 km/h (0 Bft) O-SO 112 0 min -5,2 C -3,1 C 0,0 km/h (0 Bft)
25.12.2021 10:40 -3,7 C 6,0 C -3,3 C -3,1 C -3,1 C 0,6 C 89 % 92 % 1012,9 hPa 0,0 l/m 0,0 km/h (0 Bft) O-SO 112 0 min -5,2 C -3,1 C 0,0 km/h (0 Bft)
25.12.2021 10:45 -3,7 C 6,0 C -3,4 C -3,2 C -3,2 C 0,5 C 89 % 92 % 1012,9 hPa 0,0 l/m 0,0 km/h (0 Bft) O-SO 112 0 min -5,2 C -3,2 C 0,0 km/h (0 Bft)
25.12.2021 10:50 -3,7 C 5,9 C -3,3 C -3,2 C -3,2 C 0,5 C 89 % 92 % 1013,2 hPa 0,0 l/m 0,0 km/h (0 Bft) O-SO 112 0 min -5,2 C -3,2 C 0,0 km/h (0 Bft)
25.12.2021 10:55 -3,6 C 5,9 C -3,2 C -3,2 C -3,2 C 0,4 C 89 % 92 % 1013,2 hPa 0,0 l/m 0,0 km/h (0 Bft) O-SO 112 0 min -5,1 C -3,2 C 0,0 km/h (0 Bft)
25.12.2021 11:00 -3,6 C 5,9 C -3,1 C -3,1 C -3,1 C 0,5 C 89 % 92 % 1013,2 hPa 0,0 l/m 0,0 km/h (0 Bft) O-SO 112 0 min -5,1 C -3,1 C 0,0 km/h (0 Bft)
25.12.2021 11:05 -3,5 C 5,9 C -2,9 C -2,9 C -2,9 C 0,6 C 89 % 92 % 1013,2 hPa 0,0 l/m 0,0 km/h (0 Bft) O-SO 112 0 min -5,0 C -2,9 C 0,0 km/h (0 Bft)
25.12.2021 11:10 -3,3 C 5,9 C -2,9 C -2,8 C -2,8 C 0,5 C 89 % 92 % 1013,2 hPa 0,0 l/m 0,0 km/h (0 Bft) O-SO 112 0 min -4,8 C -2,8 C 0,0 km/h (0 Bft)
25.12.2021 11:15 -3,3 C 5,9 C -2,9 C -2,6 C -2,6 C 0,7 C 89 % 91 % 1013,2 hPa 0,0 l/m 0,0 km/h (0 Bft) O-SO 112 0 min -4,8 C -2,6 C 0,0 km/h (0 Bft)
25.12.2021 11:20 -3,3 C 5,9 C -2,7 C -2,6 C -2,6 C 0,7 C 89 % 91 % 1013,2 hPa 0,0 l/m 0,0 km/h (0 Bft) O-SO 112 0 min -4,8 C -2,6 C 0,0 km/h (0 Bft)
25.12.2021 11:25 -3,3 C 5,9 C -2,7 C -2,5 C -2,5 C 0,8 C 89 % 91 % 1013,2 hPa 0,0 l/m 0,0 km/h (0 Bft) O-SO 112 0 min -4,8 C -2,5 C 0,0 km/h (0 Bft)
25.12.2021 11:30 -3,3 C 5,9 C -2,8 C -2,6 C -2,6 C 0,7 C 88 % 91 % 1013,9 hPa 0,0 l/m 0,0 km/h (0 Bft) O-SO 112 0 min -5,0 C -2,6 C 0,0 km/h (0 Bft)
25.12.2021 11:35 -3,3 C 5,8 C -2,8 C -2,6 C -2,6 C 0,7 C 88 % 91 % 1013,9 hPa 0,0 l/m 0,0 km/h (0 Bft) O-SO 112 0 min -5,0 C -2,6 C 0,0 km/h (0 Bft)
25.12.2021 11:40 -3,3 C 5,9 C -2,9 C -2,7 C -2,7 C 0,6 C 88 % 91 % 1013,9 hPa 0,0 l/m 0,0 km/h (0 Bft) O-SO 112 0 min -5,0 C -2,7 C 0,0 km/h (0 Bft)
25.12.2021 11:45 -3,3 C 5,9 C -2,8 C -2,8 C -2,8 C 0,5 C 88 % 91 % 1013,9 hPa 0,0 l/m 0,0 km/h (0 Bft) O-SO 112 0 min -5,0 C -2,8 C 0,0 km/h (0 Bft)
25.12.2021 11:50 -3,3 C 5,8 C -2,9 C -2,8 C -2,8 C 0,5 C 88 % 91 % 1013,2 hPa 0,0 l/m 0,0 km/h (0 Bft) O-SO 112 0 min -5,0 C -2,8 C 0,0 km/h (0 Bft)
25.12.2021 11:55 -3,3 C 5,8 C -2,9 C -2,9 C -2,9 C 0,4 C 88 % 91 % 1013,2 hPa 0,0 l/m 0,0 km/h (0 Bft) O-SO 112 0 min -5,0 C -2,9 C 0,0 km/h (0 Bft)
25.12.2021 12:00 -3,3 C 5,8 C -3,0 C -3,0 C -3,0 C 0,3 C 88 % 91 % 1013,2 hPa 0,0 l/m 0,0 km/h (0 Bft) O-SO 112 0 min -5,0 C -3,0 C 0,0 km/h (0 Bft)
25.12.2021 12:05 -3,3 C 5,8 C -2,9 C -3,0 C -3,0 C 0,3 C 88 % 91 % 1013,2 hPa 0,0 l/m 0,0 km/h (0 Bft) O-SO 112 0 min -5,0 C -3,0 C 0,0 km/h (0 Bft)
25.12.2021 12:10 -3,3 C 5,8 C -2,9 C -3,0 C -3,0 C 0,3 C 88 % 91 % 1013,4 hPa 0,0 l/m 0,0 km/h (0 Bft) O-SO 112 0 min -5,0 C -3,0 C 0,0 km/h (0 Bft)
25.12.2021 12:15 -3,4 C 5,8 C -2,9 C -3,0 C -3,0 C 0,4 C 88 % 90 % 1013,4 hPa 0,0 l/m 0,0 km/h (0 Bft) O-SO 112 0 min -5,1 C -3,0 C 0,0 km/h (0 Bft)
25.12.2021 12:20 -3,3 C 5,8 C -3,0 C -3,0 C -3,0 C 0,3 C 88 % 90 % 1013,4 hPa 0,0 l/m 0,0 km/h (0 Bft) O-SO 112 0 min -5,0 C -3,0 C 0,0 km/h (0 Bft)
25.12.2021 12:25 -3,4 C 5,8 C -2,9 C -3,0 C -3,0 C 0,4 C 88 % 91 % 1013,4 hPa 0,0 l/m 0,0 km/h (0 Bft) O-SO 112 0 min -5,1 C -3,0 C 0,0 km/h (0 Bft)
25.12.2021 12:30 -3,3 C 5,8 C -2,9 C -3,0 C -3,0 C 0,3 C 88 % 91 % 1013,2 hPa 0,0 l/m 0,0 km/h (0 Bft) O-SO 112 0 min -5,0 C -3,0 C 0,0 km/h (0 Bft)
25.12.2021 12:35 -3,3 C 5,7 C -2,9 C -2,9 C -2,9 C 0,4 C 88 % 91 % 1013,2 hPa 0,0 l/m 0,0 km/h (0 Bft) O-SO 112 0 min -5,0 C -2,9 C 0,0 km/h (0 Bft)
25.12.2021 12:40 -3,3 C 5,7 C -2,8 C -2,8 C -2,8 C 0,5 C 88 % 91 % 1013,2 hPa 0,0 l/m 0,0 km/h (0 Bft) O-SO 112 0 min -5,0 C -2,8 C 0,0 km/h (0 Bft)
25.12.2021 12:45 -3,3 C 5,7 C -2,7 C -2,7 C -2,7 C 0,6 C 88 % 91 % 1013,2 hPa 0,0 l/m 0,0 km/h (0 Bft) O-SO 112 0 min -5,0 C -2,7 C 0,0 km/h (0 Bft)
25.12.2021 12:50 -3,3 C 5,7 C -2,7 C -2,6 C -2,6 C 0,7 C 88 % 91 % 1013,2 hPa 0,0 l/m 0,0 km/h (0 Bft) O-SO 112 0 min -5,0 C -2,6 C 0,0 km/h (0 Bft)
25.12.2021 12:55 -3,3 C 5,7 C -2,7 C -2,6 C -2,6 C 0,7 C 88 % 91 % 1013,2 hPa 0,0 l/m 0,0 km/h (0 Bft) O-SO 112 0 min -5,0 C -2,6 C 0,0 km/h (0 Bft)
25.12.2021 13:00 -3,1 C 5,7 C -2,6 C -2,6 C -2,6 C 0,5 C 88 % 91 % 1013,2 hPa 0,0 l/m 0,0 km/h (0 Bft) O-SO 112 0 min -4,8 C -2,6 C 0,0 km/h (0 Bft)
25.12.2021 13:05 -3,1 C 5,7 C -2,7 C -2,6 C -2,6 C 0,5 C 88 % 91 % 1013,2 hPa 0,0 l/m 0,0 km/h (0 Bft) O-SO 112 0 min -4,8 C -2,6 C 0,0 km/h (0 Bft)
25.12.2021 13:10 -3,2 C 5,7 C -2,7 C -2,5 C -2,5 C 0,7 C 88 % 91 % 1013,4 hPa 0,0 l/m 0,3 km/h (0 Bft) O-SO 112 0 min -4,9 C -2,5 C 2,1 km/h (1 Bft)
25.12.2021 13:15 -3,1 C 5,7 C -2,7 C -2,6 C -2,6 C 0,5 C 88 % 91 % 1013,4 hPa 0,0 l/m 0,6 km/h (0 Bft) O-SO 112 0 min -4,8 C -2,6 C 2,6 km/h (1 Bft)
25.12.2021 13:20 -3,3 C 5,7 C -2,7 C -2,6 C -2,6 C 0,7 C 88 % 91 % 1013,4 hPa 0,0 l/m 0,8 km/h (0 Bft) O-SO 112 0 min -5,0 C -2,6 C 2,1 km/h (1 Bft)
25.12.2021 13:25 -3,3 C 5,7 C -2,7 C -2,7 C -2,7 C 0,6 C 88 % 90 % 1013,4 hPa 0,0 l/m 1,4 km/h (1 Bft) O-SO 112 0 min -5,0 C -2,7 C 2,4 km/h (1 Bft)
25.12.2021 13:30 -3,4 C 5,7 C -2,8 C -2,7 C -2,7 C 0,7 C 88 % 90 % 1013,9 hPa 0,0 l/m 1,8 km/h (1 Bft) O-SO 112 0 min -5,1 C -2,7 C 2,4 km/h (1 Bft)
25.12.2021 13:35 -3,3 C 5,6 C -2,9 C -2,8 C -2,8 C 0,5 C 88 % 90 % 1013,9 hPa 0,0 l/m 1,8 km/h (1 Bft) O-SO 112 0 min -5,0 C -2,8 C 2,1 km/h (1 Bft)
25.12.2021 13:40 -3,5 C 5,6 C -3,0 C -2,8 C -2,8 C 0,7 C 88 % 90 % 1013,9 hPa 0,0 l/m 1,8 km/h (1 Bft) O-SO 112 0 min -5,2 C -2,8 C 2,4 km/h (1 Bft)
25.12.2021 13:45 -3,5 C 5,6 C -3,1 C -3,0 C -3,0 C 0,5 C 88 % 90 % 1013,9 hPa 0,0 l/m 1,3 km/h (1 Bft) O-SO 112 0 min -5,2 C -3,0 C 2,3 km/h (1 Bft)
25.12.2021 13:50 -3,6 C 5,6 C -3,2 C -3,1 C -3,1 C 0,5 C 88 % 90 % 1013,6 hPa 0,0 l/m 1,4 km/h (1 Bft) O-SO 112 0 min -5,3 C -3,1 C 2,4 km/h (1 Bft)
25.12.2021 13:55 -3,7 C 5,6 C -3,3 C -3,2 C -3,2 C 0,5 C 88 % 90 % 1013,6 hPa 0,0 l/m 1,4 km/h (1 Bft) O-SO 112 0 min -5,4 C -3,2 C 1,8 km/h (1 Bft)
25.12.2021 14:00 -3,7 C 5,6 C -3,4 C -3,3 C -3,3 C 0,4 C 88 % 90 % 1013,6 hPa 0,0 l/m 1,4 km/h (1 Bft) O-SO 112 0 min -5,4 C -3,3 C 3,2 km/h (1 Bft)
25.12.2021 14:05 -3,9 C 5,6 C -3,5 C -3,6 C -3,6 C 0,3 C 88 % 90 % 1013,6 hPa 0,0 l/m 1,1 km/h (1 Bft) O-SO 112 0 min -5,6 C -3,6 C 4,3 km/h (1 Bft)
25.12.2021 14:10 -3,9 C 5,6 C -3,6 C -3,6 C -3,6 C 0,3 C 88 % 90 % 1013,6 hPa 0,0 l/m 0,8 km/h (0 Bft) O-SO 112 0 min -5,6 C -3,6 C 0,0 km/h (0 Bft)
25.12.2021 14:15 -4,0 C 5,6 C -3,7 C -3,8 C -3,8 C 0,2 C 88 % 90 % 1013,6 hPa 0,0 l/m 0,6 km/h (0 Bft) O-SO 112 0 min -5,7 C -3,8 C 1,6 km/h (1 Bft)
25.12.2021 14:20 -4,0 C 5,6 C -3,8 C -3,8 C -3,8 C 0,2 C 88 % 91 % 1013,6 hPa 0,0 l/m 0,3 km/h (0 Bft) O-SO 112 0 min -5,7 C -3,8 C 0,0 km/h (0 Bft)
25.12.2021 14:25 -4,1 C 5,5 C -3,9 C -4,0 C -4,0 C 0,1 C 88 % 91 % 1013,6 hPa 0,0 l/m 0,2 km/h (0 Bft) O-SO 112 0 min -5,8 C -4,0 C 1,6 km/h (1 Bft)
25.12.2021 14:30 -4,1 C 5,5 C -4,1 C -4,1 C -4,1 C 0,0 C 88 % 90 % 1013,6 hPa 0,0 l/m 0,6 km/h (0 Bft) O-SO 112 0 min -5,8 C -4,1 C 1,8 km/h (1 Bft)
25.12.2021 14:35 -4,1 C 5,5 C -4,1 C -4,2 C -4,3 C 0,0 C 88 % 91 % 1013,6 hPa 0,0 l/m 1,0 km/h (0 Bft) O-SO 112 0 min -5,8 C -4,3 C 2,9 km/h (1 Bft)
25.12.2021 14:40 -4,3 C 5,5 C -4,2 C -4,3 C -4,4 C 0,0 C 88 % 91 % 1013,6 hPa 0,0 l/m 0,6 km/h (0 Bft) O-SO 112 0 min -6,0 C -4,4 C 0,0 km/h (0 Bft)
25.12.2021 14:45 -4,3 C 5,5 C -4,4 C -4,3 C -4,4 C 0,0 C 88 % 91 % 1013,6 hPa 0,0 l/m 0,5 km/h (0 Bft) O-SO 112 0 min -6,0 C -4,4 C 0,0 km/h (0 Bft)
25.12.2021 14:50 -4,4 C 5,5 C -4,5 C -4,4 C -4,5 C 0,0 C 87 % 91 % 1013,6 hPa 0,0 l/m 0,2 km/h (0 Bft) O-SO 112 0 min -6,2 C -4,5 C 0,0 km/h (0 Bft)
25.12.2021 14:55 -4,5 C 5,5 C -4,7 C -4,6 C -4,8 C 0,0 C 87 % 91 % 1013,6 hPa 0,0 l/m 0,0 km/h (0 Bft) O-SO 112 0 min -6,3 C -4,8 C 0,0 km/h (0 Bft)
25.12.2021 15:00 -4,5 C 5,5 C -4,8 C -4,7 C -5,0 C 0,0 C 87 % 91 % 1013,6 hPa 0,0 l/m 0,3 km/h (0 Bft) O-SO 112 0 min -6,3 C -5,0 C 1,6 km/h (1 Bft)
25.12.2021 15:05 -4,8 C 5,4 C -5,0 C -4,9 C -5,2 C 0,0 C 87 % 91 % 1013,6 hPa 0,0 l/m 0,3 km/h (0 Bft) O-SO 112 0 min -6,6 C -5,2 C 0,0 km/h (0 Bft)
25.12.2021 15:10 -4,9 C 5,4 C -5,1 C -5,1 C -5,4 C 0,0 C 87 % 91 % 1013,9 hPa 0,0 l/m 0,2 km/h (0 Bft) O-SO 112 0 min -6,7 C -5,4 C 0,0 km/h (0 Bft)
25.12.2021 15:15 -4,9 C 5,4 C -5,3 C -5,2 C -5,7 C 0,0 C 87 % 91 % 1013,9 hPa 0,0 l/m 0,0 km/h (0 Bft) O-SO 112 0 min -6,7 C -5,7 C 0,0 km/h (0 Bft)
25.12.2021 15:20 -5,1 C 5,4 C -5,5 C -5,4 C -5,9 C 0,0 C 87 % 91 % 1013,9 hPa 0,0 l/m 0,0 km/h (0 Bft) O-SO 112 0 min -6,9 C -5,9 C 0,0 km/h (0 Bft)
25.12.2021 15:25 -5,3 C 5,4 C -5,6 C -5,6 C -6,1 C 0,0 C 87 % 91 % 1013,9 hPa 0,0 l/m 0,0 km/h (0 Bft) O-SO 112 0 min -7,1 C -6,1 C 0,0 km/h (0 Bft)
25.12.2021 15:30 -5,3 C 5,4 C -5,7 C -5,6 C -6,2 C 0,0 C 87 % 91 % 1014,3 hPa 0,0 l/m 0,0 km/h (0 Bft) O-SO 112 0 min -7,1 C -6,2 C 0,0 km/h (0 Bft)
25.12.2021 15:35 -5,5 C 5,4 C -5,9 C -5,8 C -6,5 C 0,0 C 87 % 92 % 1014,3 hPa 0,0 l/m 0,0 km/h (0 Bft) O-SO 112 0 min -7,3 C -6,5 C 0,0 km/h (0 Bft)
25.12.2021 15:40 -5,6 C 5,4 C -5,9 C -5,9 C -6,6 C 0,0 C 87 % 92 % 1014,3 hPa 0,0 l/m 0,0 km/h (0 Bft) O-SO 112 0 min -7,4 C -6,6 C 0,0 km/h (0 Bft)
25.12.2021 15:45 -5,7 C 5,4 C -6,1 C -6,1 C -6,9 C 0,0 C 87 % 91 % 1014,3 hPa 0,0 l/m 0,0 km/h (0 Bft) O-SO 112 0 min -7,5 C -6,9 C 0,0 km/h (0 Bft)
25.12.2021 15:50 -5,9 C 5,4 C -6,3 C -6,3 C -7,1 C 0,0 C 87 % 91 % 1014,8 hPa 0,0 l/m 0,0 km/h (0 Bft) O-SO 112 0 min -7,7 C -7,1 C 0,0 km/h (0 Bft)
25.12.2021 15:55 -6,0 C 5,3 C -6,4 C -6,4 C -7,3 C 0,0 C 87 % 92 % 1014,8 hPa 0,0 l/m 0,0 km/h (0 Bft) O-SO 112 0 min -7,8 C -7,3 C 0,0 km/h (0 Bft)
25.12.2021 16:00 -6,1 C 5,3 C -6,5 C -6,5 C -7,4 C 0,0 C 87 % 91 % 1014,8 hPa 0,0 l/m 0,0 km/h (0 Bft) O-SO 112 0 min -7,9 C -7,4 C 0,0 km/h (0 Bft)
25.12.2021 16:05 -6,3 C 5,3 C -6,8 C -6,7 C -7,6 C 0,0 C 87 % 92 % 1014,8 hPa 0,0 l/m 0,0 km/h (0 Bft) O-SO 112 0 min -8,1 C -7,6 C 0,0 km/h (0 Bft)
25.12.2021 16:10 -6,3 C 5,3 C -6,7 C -6,7 C -7,6 C 0,0 C 87 % 92 % 1014,8 hPa 0,0 l/m 0,0 km/h (0 Bft) O-SO 112 0 min -8,1 C -7,6 C 0,0 km/h (0 Bft)
25.12.2021 16:15 -6,4 C 5,3 C -6,7 C -6,8 C -7,7 C 0,0 C 87 % 92 % 1014,8 hPa 0,0 l/m 0,0 km/h (0 Bft) O-SO 112 0 min -8,2 C -7,7 C 0,0 km/h (0 Bft)
25.12.2021 16:20 -6,5 C 5,3 C -6,8 C -6,9 C -7,8 C 0,0 C 87 % 92 % 1014,8 hPa 0,0 l/m 0,0 km/h (0 Bft) O-SO 112 0 min -8,3 C -7,8 C 0,0 km/h (0 Bft)
25.12.2021 16:25 -6,6 C 5,3 C -6,9 C -7,0 C -7,9 C 0,0 C 87 % 92 % 1014,8 hPa 0,0 l/m 0,0 km/h (0 Bft) O-SO 112 0 min -8,4 C -7,9 C 0,0 km/h (0 Bft)
25.12.2021 16:30 -6,7 C 5,3 C -7,2 C -7,2 C -8,2 C 0,0 C 87 % 92 % 1014,5 hPa 0,0 l/m 0,0 km/h (0 Bft) O-SO 112 0 min -8,5 C -8,2 C 0,0 km/h (0 Bft)
25.12.2021 16:35 -6,9 C 5,3 C -7,4 C -7,4 C -8,4 C 0,0 C 87 % 92 % 1014,5 hPa 0,0 l/m 0,0 km/h (0 Bft) O-SO 112 0 min -8,7 C -8,4 C 0,0 km/h (0 Bft)
25.12.2021 16:40 -6,9 C 5,3 C -7,6 C -7,4 C -8,5 C 0,0 C 87 % 92 % 1014,5 hPa 0,0 l/m 0,0 km/h (0 Bft) O-SO 112 0 min -8,7 C -8,5 C 0,0 km/h (0 Bft)
25.12.2021 16:45 -7,1 C 5,2 C -7,8 C -7,6 C -8,6 C 0,0 C 87 % 92 % 1014,5 hPa 0,0 l/m 0,0 km/h (0 Bft) O-SO 112 0 min -8,9 C -8,6 C 0,0 km/h (0 Bft)
25.12.2021 16:50 -7,2 C 5,2 C -7,8 C -7,7 C -8,8 C 0,0 C 87 % 92 % 1014,7 hPa 0,0 l/m 0,0 km/h (0 Bft) O-SO 112 0 min -9,0 C -8,8 C 0,0 km/h (0 Bft)
25.12.2021 16:55 -7,3 C 5,2 C -8,0 C -7,9 C -9,0 C 0,0 C 87 % 92 % 1014,7 hPa 0,0 l/m 0,0 km/h (0 Bft) O-SO 112 0 min -9,1 C -9,0 C 0,0 km/h (0 Bft)
25.12.2021 17:00 -7,5 C 5,2 C -8,1 C -8,1 C -9,2 C 0,0 C 87 % 92 % 1014,7 hPa 0,0 l/m 0,0 km/h (0 Bft) O-SO 112 0 min -9,3 C -9,2 C 0,0 km/h (0 Bft)
25.12.2021 17:05 -7,7 C 5,2 C -8,2 C -8,3 C -9,4 C 0,0 C 87 % 92 % 1014,7 hPa 0,0 l/m 0,0 km/h (0 Bft) O-SO 112 0 min -9,5 C -9,4 C 0,0 km/h (0 Bft)
25.12.2021 17:10 -7,7 C 5,2 C -8,4 C -8,3 C -9,5 C 0,0 C 87 % 92 % 1015,0 hPa 0,0 l/m 0,0 km/h (0 Bft) O-SO 112 0 min -9,5 C -9,5 C 0,0 km/h (0 Bft)
25.12.2021 17:15 -7,9 C 5,2 C -8,4 C -8,5 C -9,7 C 0,0 C 87 % 92 % 1015,0 hPa 0,0 l/m 0,0 km/h (0 Bft) O-SO 112 0 min -9,7 C -9,7 C 0,0 km/h (0 Bft)
25.12.2021 17:20 -7,9 C 5,2 C -8,5 C -8,5 C -9,7 C 0,0 C 87 % 92 % 1015,0 hPa 0,0 l/m 0,0 km/h (0 Bft) O-SO 112 0 min -9,7 C -9,7 C 0,0 km/h (0 Bft)
25.12.2021 17:25 -7,9 C 5,2 C -8,5 C -8,5 C -9,7 C 0,0 C 87 % 92 % 1015,0 hPa 0,0 l/m 0,0 km/h (0 Bft) O-SO 112 0 min -9,7 C -9,7 C 0,0 km/h (0 Bft)
25.12.2021 17:30 -8,0 C 5,2 C -8,4 C -8,5 C -9,6 C 0,0 C 87 % 92 % 1015,0 hPa 0,0 l/m 0,0 km/h (0 Bft) O-SO 112 0 min -9,8 C -9,6 C 0,0 km/h (0 Bft)
25.12.2021 17:35 -8,1 C 5,1 C -8,6 C -8,6 C -9,6 C 0,0 C 87 % 92 % 1015,0 hPa 0,0 l/m 0,0 km/h (0 Bft) O-SO 112 0 min -9,9 C -9,6 C 0,0 km/h (0 Bft)
25.12.2021 17:40 -8,1 C 5,1 C -8,7 C -8,6 C -9,7 C 0,0 C 87 % 92 % 1015,0 hPa 0,0 l/m 0,0 km/h (0 Bft) O-SO 112 0 min -9,9 C -9,7 C 0,0 km/h (0 Bft)
25.12.2021 17:45 -8,1 C 5,1 C -8,9 C -8,6 C -9,7 C 0,0 C 87 % 92 % 1015,0 hPa 0,0 l/m 0,0 km/h (0 Bft) O-SO 112 0 min -9,9 C -9,7 C 0,0 km/h (0 Bft)
25.12.2021 17:50 -8,1 C 5,1 C -8,8 C -8,6 C -9,6 C 0,0 C 87 % 92 % 1015,2 hPa 0,0 l/m 0,0 km/h (0 Bft) O-SO 112 0 min -9,9 C -9,6 C 0,0 km/h (0 Bft)
25.12.2021 17:55 -8,3 C 5,1 C -9,0 C -8,7 C -9,6 C 0,0 C 87 % 92 % 1015,2 hPa 0,0 l/m 0,0 km/h (0 Bft) O-SO 112 0 min -10,1 C -9,6 C 0,0 km/h (0 Bft)
25.12.2021 18:00 -8,4 C 5,1 C -9,1 C -8,8 C -9,6 C 0,0 C 87 % 92 % 1015,2 hPa 0,0 l/m 0,0 km/h (0 Bft) O-SO 112 0 min -10,2 C -9,6 C 0,0 km/h (0 Bft)
25.12.2021 18:05 -8,6 C 5,1 C -9,0 C -9,0 C -9,8 C 0,0 C 87 % 92 % 1015,2 hPa 0,0 l/m 0,0 km/h (0 Bft) O-SO 112 0 min -10,4 C -9,8 C 0,0 km/h (0 Bft)
25.12.2021 18:10 -8,5 C 5,0 C -9,0 C -8,9 C -9,8 C 0,0 C 87 % 92 % 1014,9 hPa 0,0 l/m 0,0 km/h (0 Bft) O-SO 112 0 min -10,3 C -9,8 C 0,0 km/h (0 Bft)
25.12.2021 18:15 -8,7 C 5,0 C -9,2 C -9,1 C -9,9 C 0,0 C 87 % 92 % 1014,9 hPa 0,0 l/m 0,0 km/h (0 Bft) O-SO 112 0 min -10,5 C -9,9 C 0,0 km/h (0 Bft)
25.12.2021 18:20 -8,7 C 5,0 C -9,3 C -9,1 C -9,9 C 0,0 C 87 % 92 % 1014,9 hPa 0,0 l/m 0,0 km/h (0 Bft) O-SO 112 0 min -10,5 C -9,9 C 0,0 km/h (0 Bft)
25.12.2021 18:25 -8,8 C 5,0 C -9,2 C -9,2 C -9,9 C 0,0 C 87 % 92 % 1014,9 hPa 0,0 l/m 0,0 km/h (0 Bft) O-SO 112 0 min -10,6 C -9,9 C 0,0 km/h (0 Bft)
25.12.2021 18:30 -8,7 C 5,0 C -9,2 C -9,1 C -9,8 C 0,0 C 87 % 92 % 1014,9 hPa 0,0 l/m 0,0 km/h (0 Bft) O-SO 112 0 min -10,5 C -9,8 C 0,0 km/h (0 Bft)
25.12.2021 18:35 -8,8 C 5,0 C -9,2 C -9,1 C -9,7 C 0,0 C 87 % 92 % 1014,9 hPa 0,0 l/m 0,0 km/h (0 Bft) O-SO 112 0 min -10,6 C -9,7 C 0,0 km/h (0 Bft)
25.12.2021 18:40 -8,8 C 5,0 C -9,1 C -9,0 C -9,5 C 0,0 C 88 % 92 % 1014,9 hPa 0,0 l/m 0,0 km/h (0 Bft) O-SO 112 0 min -10,4 C -9,5 C 0,0 km/h (0 Bft)
25.12.2021 18:45 -8,7 C 5,0 C -8,9 C -9,0 C -9,5 C 0,0 C 88 % 93 % 1014,9 hPa 0,0 l/m 0,0 km/h (0 Bft) O-SO 112 0 min -10,3 C -9,5 C 0,0 km/h (0 Bft)
25.12.2021 18:50 -8,7 C 5,0 C -9,2 C -9,0 C -9,7 C 0,0 C 88 % 92 % 1015,0 hPa 0,0 l/m 0,0 km/h (0 Bft) O-SO 112 0 min -10,3 C -9,7 C 0,0 km/h (0 Bft)
25.12.2021 18:55 -8,7 C 5,0 C -9,3 C -9,1 C -9,9 C 0,0 C 88 % 92 % 1015,0 hPa 0,0 l/m 0,0 km/h (0 Bft) O-SO 112 0 min -10,3 C -9,9 C 0,0 km/h (0 Bft)
25.12.2021 19:00 -8,9 C 5,0 C -9,3 C -9,3 C -10,1 C 0,0 C 88 % 92 % 1015,0 hPa 0,0 l/m 0,0 km/h (0 Bft) O-SO 112 0 min -10,5 C -10,1 C 0,0 km/h (0 Bft)
25.12.2021 19:05 -9,0 C 5,0 C -9,5 C -9,4 C -10,2 C 0,0 C 88 % 92 % 1015,0 hPa 0,0 l/m 0,0 km/h (0 Bft) O-SO 112 0 min -10,6 C -10,2 C 0,0 km/h (0 Bft)
25.12.2021 19:10 -8,9 C 5,0 C -9,3 C -9,4 C -10,3 C 0,0 C 88 % 92 % 1015,5 hPa 0,0 l/m 0,0 km/h (0 Bft) O-SO 112 0 min -10,5 C -10,3 C 0,0 km/h (0 Bft)
25.12.2021 19:15 -8,9 C 4,9 C -9,3 C -9,3 C -10,2 C 0,0 C 88 % 92 % 1015,5 hPa 0,0 l/m 0,0 km/h (0 Bft) O-SO 112 0 min -10,5 C -10,2 C 0,0 km/h (0 Bft)
25.12.2021 19:20 -9,1 C 4,9 C -9,4 C -9,5 C -10,2 C 0,0 C 88 % 92 % 1015,5 hPa 0,0 l/m 0,0 km/h (0 Bft) O-SO 112 0 min -10,7 C -10,2 C 0,0 km/h (0 Bft)
25.12.2021 19:25 -9,1 C 4,9 C -9,5 C -9,5 C -10,3 C 0,0 C 88 % 92 % 1015,5 hPa 0,0 l/m 0,0 km/h (0 Bft) O-SO 112 0 min -10,7 C -10,3 C 0,0 km/h (0 Bft)
25.12.2021 19:30 -9,2 C 4,9 C -9,5 C -9,6 C -10,3 C 0,0 C 88 % 92 % 1015,6 hPa 0,0 l/m 0,0 km/h (0 Bft) O-SO 112 0 min -10,8 C -10,3 C 0,0 km/h (0 Bft)
25.12.2021 19:35 -9,3 C 4,9 C -9,8 C -9,7 C -10,4 C 0,0 C 87 % 92 % 1015,6 hPa 0,0 l/m 0,0 km/h (0 Bft) O-SO 112 0 min -11,1 C -10,4 C 0,0 km/h (0 Bft)
25.12.2021 19:40 -9,3 C 4,9 C -9,9 C -9,7 C -10,4 C 0,0 C 87 % 92 % 1015,6 hPa 0,0 l/m 0,0 km/h (0 Bft) O-SO 112 0 min -11,1 C -10,4 C 0,0 km/h (0 Bft)
25.12.2021 19:45 -9,4 C 4,9 C -9,7 C -9,7 C -10,3 C 0,0 C 87 % 92 % 1015,6 hPa 0,0 l/m 0,0 km/h (0 Bft) O-SO 112 0 min -11,2 C -10,3 C 0,0 km/h (0 Bft)
25.12.2021 19:50 -9,2 C 4,9 C -9,4 C -9,5 C -10,1 C 0,0 C 88 % 93 % 1015,5 hPa 0,0 l/m 0,0 km/h (0 Bft) O-SO 112 0 min -10,8 C -10,1 C 0,0 km/h (0 Bft)
25.12.2021 19:55 -8,9 C 4,9 C -9,0 C -9,2 C -9,8 C 0,0 C 88 % 93 % 1015,5 hPa 0,0 l/m 0,0 km/h (0 Bft) O-SO 112 0 min -10,5 C -9,8 C 0,0 km/h (0 Bft)
25.12.2021 20:00 -8,7 C 4,9 C -8,9 C -9,0 C -9,7 C 0,0 C 88 % 93 % 1015,5 hPa 0,0 l/m 0,0 km/h (0 Bft) O-SO 112 0 min -10,3 C -9,7 C 0,0 km/h (0 Bft)
25.12.2021 20:05 -8,7 C 4,9 C -8,9 C -9,0 C -9,6 C 0,0 C 88 % 93 % 1015,5 hPa 0,0 l/m 0,0 km/h (0 Bft) O-SO 112 0 min -10,3 C -9,6 C 0,0 km/h (0 Bft)
25.12.2021 20:10 -8,5 C 4,9 C -8,9 C -8,8 C -9,5 C 0,0 C 88 % 93 % 1015,2 hPa 0,0 l/m 0,0 km/h (0 Bft) O-SO 112 0 min -10,1 C -9,5 C 0,0 km/h (0 Bft)
25.12.2021 20:15 -8,5 C 4,9 C -8,8 C -8,8 C -9,5 C 0,0 C 88 % 93 % 1015,2 hPa 0,0 l/m 0,0 km/h (0 Bft) O-SO 112 0 min -10,1 C -9,5 C 0,0 km/h (0 Bft)
25.12.2021 20:20 -8,5 C 4,8 C -8,8 C -8,9 C -9,6 C 0,0 C 88 % 93 % 1015,2 hPa 0,0 l/m 0,0 km/h (0 Bft) O-SO 112 0 min -10,1 C -9,6 C 0,0 km/h (0 Bft)
25.12.2021 20:25 -8,5 C 4,8 C -8,9 C -8,9 C -9,7 C 0,0 C 88 % 93 % 1015,2 hPa 0,0 l/m 0,0 km/h (0 Bft) O-SO 112 0 min -10,1 C -9,7 C 0,0 km/h (0 Bft)
25.12.2021 20:30 -8,7 C 4,8 C -9,0 C -9,1 C -9,9 C 0,0 C 88 % 92 % 1015,2 hPa 0,0 l/m 0,0 km/h (0 Bft) O-SO 112 0 min -10,3 C -9,9 C 0,0 km/h (0 Bft)
25.12.2021 20:35 -8,9 C 4,8 C -9,5 C -9,3 C -10,2 C 0,0 C 88 % 92 % 1015,2 hPa 0,0 l/m 0,0 km/h (0 Bft) O-SO 112 0 min -10,5 C -10,2 C 0,0 km/h (0 Bft)
25.12.2021 20:40 -9,0 C 4,8 C -9,6 C -9,5 C -10,4 C 0,0 C 88 % 92 % 1015,2 hPa 0,0 l/m 0,0 km/h (0 Bft) O-SO 112 0 min -10,6 C -10,4 C 0,0 km/h (0 Bft)
25.12.2021 20:45 -9,1 C 4,8 C -10,1 C -9,7 C -10,8 C 0,0 C 88 % 92 % 1015,2 hPa 0,0 l/m 0,0 km/h (0 Bft) O-SO 112 0 min -10,7 C -10,8 C 0,0 km/h (0 Bft)
25.12.2021 20:50 -9,3 C 4,8 C -10,1 C -9,8 C -10,8 C 0,0 C 88 % 92 % 1015,9 hPa 0,0 l/m 0,0 km/h (0 Bft) O-SO 112 0 min -10,9 C -10,8 C 0,0 km/h (0 Bft)
25.12.2021 20:55 -9,5 C 4,7 C -10,3 C -10,0 C -11,0 C 0,0 C 87 % 92 % 1015,9 hPa 0,0 l/m 0,0 km/h (0 Bft) O-SO 112 0 min -11,2 C -11,0 C 0,0 km/h (0 Bft)
25.12.2021 21:00 -9,7 C 4,7 C -10,3 C -10,2 C -11,1 C 0,0 C 87 % 92 % 1015,9 hPa 0,0 l/m 0,0 km/h (0 Bft) O-SO 112 0 min -11,4 C -11,1 C 0,0 km/h (0 Bft)
25.12.2021 21:05 -9,7 C 4,7 C -10,5 C -10,2 C -11,3 C 0,0 C 87 % 92 % 1015,9 hPa 0,0 l/m 0,0 km/h (0 Bft) O-SO 112 0 min -11,4 C -11,3 C 0,0 km/h (0 Bft)
25.12.2021 21:10 -9,7 C 4,7 C -10,6 C -10,2 C -11,3 C 0,0 C 87 % 92 % 1015,3 hPa 0,0 l/m 0,0 km/h (0 Bft) O-SO 112 0 min -11,4 C -11,3 C 0,0 km/h (0 Bft)
25.12.2021 21:15 -9,9 C 4,7 C -10,5 C -10,4 C -11,3 C 0,0 C 87 % 92 % 1015,3 hPa 0,0 l/m 0,0 km/h (0 Bft) O-SO 112 0 min -11,6 C -11,3 C 0,0 km/h (0 Bft)
25.12.2021 21:20 -10,0 C 4,7 C -10,6 C -10,4 C -11,3 C 0,0 C 88 % 92 % 1015,3 hPa 0,0 l/m 0,0 km/h (0 Bft) O-SO 112 0 min -11,6 C -11,3 C 0,0 km/h (0 Bft)
25.12.2021 21:25 -9,9 C 4,7 C -10,7 C -10,4 C -11,4 C 0,0 C 87 % 92 % 1015,3 hPa 0,0 l/m 0,0 km/h (0 Bft) O-SO 112 0 min -11,6 C -11,4 C 0,0 km/h (0 Bft)
25.12.2021 21:30 -10,1 C 4,7 C -10,6 C -10,5 C -11,4 C 0,0 C 88 % 92 % 1015,4 hPa 0,0 l/m 0,0 km/h (0 Bft) O-SO 112 0 min -11,7 C -11,4 C 0,0 km/h (0 Bft)
25.12.2021 21:35 -10,1 C 4,7 C -10,9 C -10,5 C -11,4 C 0,0 C 88 % 92 % 1015,4 hPa 0,0 l/m 0,0 km/h (0 Bft) O-SO 112 0 min -11,7 C -11,4 C 0,0 km/h (0 Bft)
25.12.2021 21:40 -10,1 C 4,6 C -10,9 C -10,5 C -11,4 C 0,0 C 88 % 92 % 1015,4 hPa 0,0 l/m 0,0 km/h (0 Bft) O-SO 112 0 min -11,7 C -11,4 C 0,0 km/h (0 Bft)
25.12.2021 21:45 -10,4 C 4,6 C -11,0 C -10,8 C -11,6 C 0,0 C 88 % 92 % 1015,4 hPa 0,0 l/m 0,0 km/h (0 Bft) O-SO 112 0 min -12,0 C -11,6 C 0,0 km/h (0 Bft)
25.12.2021 21:50 -10,5 C 4,6 C -11,1 C -10,9 C -11,7 C 0,0 C 87 % 92 % 1015,3 hPa 0,0 l/m 0,0 km/h (0 Bft) O-SO 112 0 min -12,2 C -11,7 C 0,0 km/h (0 Bft)
25.12.2021 21:55 -10,5 C 4,6 C -11,1 C -10,9 C -11,7 C 0,0 C 87 % 92 % 1015,3 hPa 0,0 l/m 0,0 km/h (0 Bft) O-SO 112 0 min -12,2 C -11,7 C 0,0 km/h (0 Bft)
25.12.2021 22:00 -10,7 C 4,6 C -11,1 C -11,1 C -11,9 C 0,0 C 87 % 92 % 1015,3 hPa 0,0 l/m 0,0 km/h (0 Bft) O-SO 112 0 min -12,4 C -11,9 C 0,0 km/h (0 Bft)
25.12.2021 22:05 -10,8 C 4,6 C -11,0 C -11,2 C -11,9 C 0,0 C 87 % 92 % 1015,3 hPa 0,0 l/m 0,0 km/h (0 Bft) O-SO 112 0 min -12,5 C -11,9 C 0,0 km/h (0 Bft)
25.12.2021 22:10 -10,9 C 4,6 C -11,0 C -11,3 C -12,0 C 0,0 C 87 % 92 % 1015,3 hPa 0,0 l/m 0,0 km/h (0 Bft) O-SO 112 0 min -12,6 C -12,0 C 0,0 km/h (0 Bft)
25.12.2021 22:15 -10,9 C 4,6 C -11,2 C -11,3 C -12,2 C 0,0 C 87 % 92 % 1015,3 hPa 0,0 l/m 0,0 km/h (0 Bft) O-SO 112 0 min -12,6 C -12,2 C 0,0 km/h (0 Bft)
25.12.2021 22:20 -11,0 C 4,6 C -11,3 C -11,4 C -12,2 C 0,0 C 87 % 92 % 1015,3 hPa 0,0 l/m 0,0 km/h (0 Bft) O-SO 112 0 min -12,7 C -12,2 C 0,0 km/h (0 Bft)
25.12.2021 22:25 -11,1 C 4,6 C -11,2 C -11,5 C -12,2 C 0,0 C 87 % 92 % 1015,3 hPa 0,0 l/m 0,0 km/h (0 Bft) O-SO 112 0 min -12,8 C -12,2 C 0,0 km/h (0 Bft)
25.12.2021 22:30 -11,1 C 4,5 C -11,2 C -11,5 C -12,4 C 0,0 C 87 % 92 % 1015,0 hPa 0,0 l/m 0,0 km/h (0 Bft) O-SO 112 0 min -12,8 C -12,4 C 0,0 km/h (0 Bft)
25.12.2021 22:35 -11,1 C 4,5 C -11,3 C -11,6 C -12,5 C 0,0 C 87 % 92 % 1015,0 hPa 0,0 l/m 0,0 km/h (0 Bft) O-SO 112 0 min -12,8 C -12,5 C 0,0 km/h (0 Bft)
25.12.2021 22:40 -11,1 C 4,5 C -11,3 C -11,6 C -12,5 C 0,0 C 87 % 92 % 1015,0 hPa 0,0 l/m 0,0 km/h (0 Bft) O-SO 112 0 min -12,8 C -12,5 C 0,0 km/h (0 Bft)
25.12.2021 22:45 -11,2 C 4,5 C -11,3 C -11,6 C -12,5 C 0,0 C 88 % 92 % 1015,0 hPa 0,0 l/m 0,0 km/h (0 Bft) O-SO 112 0 min -12,8 C -12,5 C 0,0 km/h (0 Bft)
25.12.2021 22:50 -11,2 C 4,5 C -11,3 C -11,7 C -12,6 C 0,0 C 88 % 92 % 1015,2 hPa 0,0 l/m 0,0 km/h (0 Bft) O-SO 112 0 min -12,8 C -12,6 C 0,0 km/h (0 Bft)
25.12.2021 22:55 -11,3 C 4,5 C -11,3 C -11,8 C -12,7 C 0,0 C 87 % 92 % 1015,2 hPa 0,0 l/m 0,0 km/h (0 Bft) O-SO 112 0 min -13,0 C -12,7 C 0,0 km/h (0 Bft)
25.12.2021 23:00 -11,3 C 4,5 C -11,3 C -11,7 C -12,6 C 0,0 C 88 % 92 % 1015,2 hPa 0,0 l/m 0,0 km/h (0 Bft) O-SO 112 0 min -12,9 C -12,6 C 0,0 km/h (0 Bft)
25.12.2021 23:05 -11,1 C 4,5 C -10,9 C -11,5 C -12,4 C 0,0 C 88 % 92 % 1015,2 hPa 0,0 l/m 0,0 km/h (0 Bft) O-SO 112 0 min -12,7 C -12,4 C 0,0 km/h (0 Bft)
25.12.2021 23:10 -10,9 C 4,5 C -10,9 C -11,3 C -12,1 C 0,0 C 88 % 92 % 1015,7 hPa 0,0 l/m 0,0 km/h (0 Bft) O-SO 112 0 min -12,5 C -12,1 C 0,0 km/h (0 Bft)
25.12.2021 23:15 -10,9 C 4,5 C -11,1 C -11,3 C -12,0 C 0,0 C 88 % 92 % 1015,7 hPa 0,0 l/m 0,0 km/h (0 Bft) O-SO 112 0 min -12,5 C -12,0 C 0,0 km/h (0 Bft)
25.12.2021 23:20 -10,9 C 4,5 C -10,9 C -11,3 C -12,0 C 0,0 C 88 % 92 % 1015,7 hPa 0,0 l/m 0,0 km/h (0 Bft) O-SO 112 0 min -12,5 C -12,0 C 0,0 km/h (0 Bft)
25.12.2021 23:25 -10,9 C 4,3 C -10,9 C -11,3 C -12,1 C 0,0 C 88 % 92 % 1015,7 hPa 0,0 l/m 0,0 km/h (0 Bft) O-SO 112 0 min -12,5 C -12,1 C 0,0 km/h (0 Bft)
25.12.2021 23:30 -10,9 C 4,3 C -11,1 C -11,3 C -12,2 C 0,0 C 88 % 92 % 1015,2 hPa 0,0 l/m 0,0 km/h (0 Bft) O-SO 112 0 min -12,5 C -12,2 C 0,0 km/h (0 Bft)
25.12.2021 23:35 -11,1 C 4,3 C -11,5 C -11,6 C -12,5 C 0,0 C 88 % 91 % 1015,2 hPa 0,0 l/m 0,0 km/h (0 Bft) O-SO 112 0 min -12,7 C -12,5 C 0,0 km/h (0 Bft)
25.12.2021 23:40 -11,1 C 4,3 C -11,6 C -11,6 C -12,6 C 0,0 C 88 % 91 % 1015,2 hPa 0,0 l/m 0,0 km/h (0 Bft) O-SO 112 0 min -12,7 C -12,6 C 0,0 km/h (0 Bft)
25.12.2021 23:45 -11,2 C 4,3 C -11,7 C -11,7 C -12,8 C 0,0 C 88 % 91 % 1015,2 hPa 0,0 l/m 0,0 km/h (0 Bft) O-SO 112 0 min -12,8 C -12,8 C 0,0 km/h (0 Bft)
25.12.2021 23:50 -11,3 C 4,3 C -11,7 C -11,8 C -12,9 C 0,0 C 88 % 91 % 1015,1 hPa 0,0 l/m 0,0 km/h (0 Bft) O-SO 112 0 min -12,9 C -12,9 C 0,0 km/h (0 Bft)
25.12.2021 23:55 -11,3 C 4,3 C -11,7 C -11,9 C -13,1 C 0,0 C 88 % 91 % 1015,1 hPa 0,0 l/m 0,0 km/h (0 Bft) O-SO 112 0 min -12,9 C -13,1 C 0,0 km/h (0 Bft)
_ Min-Zeit 22:55 23:25 23:45 23:55 23:55 01:30 14:50 12:15 00:00 - 00:30 - - - 22:55 23:55 00:00
Minimum _ -11,3 C 4,3 C -11,7 C -11,9 C -13,1 C 0,0 C 87 % 90 % 1007,6 hPa - 0,0 km/h (0 Bft) - - - -13,0 C -13,1 C 0,0 km/h (0 Bft)
_ Max-Zeit 00:00 00:00 00:00 00:00 00:00 11:25 00:00 01:10 20:50 00:00 13:30 - - 00:00 00:00 00:00 14:05
Maximum _ -0,1 C 7,6 C -0,1 C 0,3 C 0,3 C 0,8 C 89 % 95 % 1015,9 hPa 0,0 l/m 1,8 km/h
O-SO (1 Bft)
- - 0 min -1,7 C 0,3 C 4,3 km/h
O-SO (1 Bft)
Durchschnitt _ -5,1 C 5,9 C -5,1 C -5,1 C -5,4 C 0,2 C 88 % 93 % 1013,0 hPa #0,0 l/m 0,1 km/h (0 Bft) O-SO - #0 min. -6,7 C -5,4 C 0,2 km/h (0 Bft)
2021 www.wetterstation-wechselburg.de